createdAt,value
2022-11-18T00:02:42.756Z,5.60
2022-11-18T00:07:39.957Z,6.20
2022-11-18T00:12:39.105Z,6.00
2022-11-18T00:17:38.461Z,5.40
2022-11-18T00:22:39.777Z,6.10
2022-11-18T00:27:37.080Z,5.40
2022-11-18T00:32:36.442Z,5.40
2022-11-18T00:37:35.559Z,5.60
2022-11-18T00:42:36.930Z,5.30
2022-11-18T00:47:35.044Z,5.80
2022-11-18T00:52:33.305Z,6.40
2022-11-18T00:57:33.595Z,5.50
2022-11-18T01:02:32.903Z,5.70
2022-11-18T01:07:32.227Z,6.00
2022-11-18T01:12:30.404Z,5.50
2022-11-18T01:17:29.691Z,5.30
2022-11-18T01:22:28.995Z,6.00
2022-11-18T01:27:28.291Z,5.40
2022-11-18T01:32:28.591Z,5.70
2022-11-18T01:37:26.941Z,5.10
2022-11-18T01:42:27.034Z,5.20
2022-11-18T01:47:25.331Z,5.50
2022-11-18T01:52:24.692Z,5.70
2022-11-18T01:57:23.778Z,5.20
2022-11-18T02:02:24.083Z,6.00
2022-11-18T02:07:23.432Z,5.20
2022-11-18T02:12:21.594Z,5.80
2022-11-18T02:17:21.879Z,10.10
2022-11-18T02:22:23.179Z,5.80
2022-11-18T02:27:20.436Z,5.10
2022-11-18T02:32:19.730Z,5.90
2022-11-18T02:37:18.005Z,5.30
2022-11-18T02:42:19.498Z,5.30
2022-11-18T02:47:17.557Z,5.40
2022-11-18T02:52:16.252Z,5.10
2022-11-18T02:57:15.174Z,5.10
2022-11-18T03:02:15.460Z,5.30
2022-11-18T03:07:13.906Z,5.10
2022-11-18T03:12:13.104Z,4.40
2022-11-18T03:17:12.233Z,5.20
2022-11-18T03:22:12.489Z,5.70
2022-11-18T03:27:11.649Z,5.00
2022-11-18T03:32:09.783Z,5.00
2022-11-18T03:37:10.733Z,4.90
2022-11-18T03:42:08.237Z,4.90
2022-11-18T03:47:07.339Z,5.10
2022-11-18T03:52:08.666Z,5.00
2022-11-18T03:57:05.836Z,5.20
2022-11-18T04:02:04.957Z,5.20
2022-11-18T04:07:04.155Z,4.80
2022-11-18T04:12:03.358Z,4.90
2022-11-18T04:17:02.710Z,4.80
2022-11-18T04:22:01.804Z,4.50
2022-11-18T04:27:01.082Z,5.00
2022-11-18T04:31:59.408Z,5.10
2022-11-18T04:36:59.557Z,4.70
2022-11-18T04:42:01.850Z,4.70
2022-11-18T04:47:01.300Z,4.80
2022-11-18T04:51:57.380Z,5.40
2022-11-18T04:56:57.646Z,5.00
2022-11-18T05:01:55.921Z,4.50
2022-11-18T05:06:55.271Z,4.70
2022-11-18T05:11:53.393Z,4.90
2022-11-18T05:16:54.674Z,4.10
2022-11-18T05:21:53.022Z,4.80
2022-11-18T05:26:52.133Z,4.50
2022-11-18T05:31:51.428Z,4.60
2022-11-18T05:36:50.837Z,3.70
2022-11-18T05:41:49.934Z,4.00
2022-11-18T05:46:49.629Z,4.40
2022-11-18T05:51:48.563Z,4.40
2022-11-18T05:56:47.898Z,4.10
2022-11-18T06:01:47.443Z,3.90
2022-11-18T06:06:46.455Z,4.30
2022-11-18T06:11:45.624Z,3.90
2022-11-18T06:16:44.788Z,4.00
2022-11-18T06:21:44.045Z,3.60
2022-11-18T06:26:43.331Z,3.70
2022-11-18T06:31:42.643Z,3.60
2022-11-18T06:36:41.900Z,3.30
2022-11-18T06:42:00.181Z,3.70
2022-11-18T06:46:41.481Z,3.60
2022-11-18T06:51:39.621Z,3.70
2022-11-18T06:56:38.830Z,3.50
2022-11-18T07:01:37.952Z,4.20
2022-11-18T07:06:36.136Z,3.50
2022-11-18T07:11:38.311Z,3.30
2022-11-18T07:16:35.489Z,3.20
2022-11-18T07:21:35.807Z,3.30
2022-11-18T07:26:35.051Z,3.70
2022-11-18T07:31:34.536Z,4.30
2022-11-18T07:36:35.591Z,3.20
2022-11-18T07:41:31.810Z,3.00
2022-11-18T07:46:31.953Z,3.30
2022-11-18T07:51:32.134Z,3.30
2022-11-18T07:56:32.314Z,2.90
2022-11-18T08:01:29.427Z,8.20
2022-11-18T08:06:28.574Z,10.40
2022-11-18T08:11:26.846Z,42.30
2022-11-18T08:16:27.138Z,210.50
2022-11-18T08:21:25.436Z,307.50
2022-11-18T08:26:24.699Z,393.20
2022-11-18T08:31:24.965Z,337.50
2022-11-18T08:36:23.235Z,496.80
2022-11-18T08:41:25.482Z,441.40
2022-11-18T08:46:22.749Z,464.60
2022-11-18T08:51:21.204Z,527.60
2022-11-18T08:56:21.326Z,482.30
2022-11-18T09:01:20.694Z,448.00
2022-11-18T09:06:18.888Z,435.90
2022-11-18T09:11:18.184Z,562.60
2022-11-18T09:16:17.499Z,533.50
2022-11-18T09:21:17.826Z,478.20
2022-11-18T09:26:17.123Z,457.10
2022-11-18T09:31:15.479Z,420.00
2022-11-18T09:36:14.591Z,362.30
2022-11-18T09:41:13.914Z,301.60
2022-11-18T09:46:15.292Z,252.40
2022-11-18T09:51:16.439Z,195.40
2022-11-18T09:56:11.732Z,161.90
2022-11-18T10:01:10.918Z,147.30
2022-11-18T10:06:10.094Z,350.30
2022-11-18T10:11:10.366Z,313.80
2022-11-18T10:16:08.686Z,263.90
2022-11-18T10:21:07.983Z,238.40
2022-11-18T10:26:08.303Z,211.30
2022-11-18T10:31:07.629Z,191.30
2022-11-18T10:36:05.907Z,160.40
2022-11-18T10:41:06.227Z,131.50
2022-11-18T10:46:04.548Z,118.00
2022-11-18T10:51:03.892Z,106.40
2022-11-18T10:56:03.224Z,92.90
2022-11-18T11:01:02.538Z,84.80
2022-11-18T11:06:01.855Z,81.50
2022-11-18T11:11:01.118Z,79.00
2022-11-18T11:16:00.339Z,71.80
2022-11-18T11:21:00.515Z,64.40
2022-11-18T11:30:57.961Z,294.60
2022-11-18T11:35:59.172Z,370.60
2022-11-18T11:40:56.347Z,261.50
2022-11-18T11:45:57.542Z,184.00
2022-11-18T11:51:03.960Z,151.90
2022-11-18T11:55:54.943Z,127.70
2022-11-18T12:00:55.122Z,109.90
2022-11-18T12:05:52.281Z,144.70
2022-11-18T12:10:52.497Z,172.40
2022-11-18T12:15:50.717Z,86.20
2022-11-18T12:20:49.874Z,69.90
2022-11-18T12:25:49.043Z,125.50
2022-11-18T12:30:48.200Z,56.10
2022-11-18T12:35:48.411Z,63.60
2022-11-18T12:40:52.265Z,158.20
2022-11-18T12:45:46.807Z,102.10
2022-11-18T12:50:46.070Z,116.40
2022-11-18T12:55:46.223Z,108.30
2022-11-18T13:00:43.430Z,61.30
2022-11-18T13:05:43.583Z,81.30
2022-11-18T13:10:42.748Z,54.90
2022-11-18T13:15:41.969Z,29.50
2022-11-18T13:20:40.133Z,41.00
2022-11-18T13:25:39.315Z,168.50
2022-11-18T13:30:38.546Z,90.40
2022-11-18T13:35:37.773Z,62.50
2022-11-18T13:40:38.973Z,48.40
2022-11-18T13:45:37.158Z,60.50
2022-11-18T13:50:36.306Z,124.20
2022-11-18T13:55:34.487Z,104.60
2022-11-18T14:00:34.746Z,78.40
2022-11-18T14:05:32.976Z,71.10
2022-11-18T14:10:38.100Z,30.30
2022-11-18T14:15:32.381Z,26.30
2022-11-18T14:20:30.541Z,36.80
2022-11-18T14:25:30.732Z,33.80
2022-11-18T14:30:30.901Z,137.60
2022-11-18T14:35:33.347Z,62.90
2022-11-18T14:40:27.291Z,48.50
2022-11-18T14:45:27.477Z,36.30
2022-11-18T14:50:25.618Z,46.00
2022-11-18T14:55:25.854Z,31.00
2022-11-18T15:00:24.028Z,19.20
2022-11-18T15:05:23.207Z,14.60
2022-11-18T15:10:23.427Z,13.40
2022-11-18T15:15:23.589Z,8.80
2022-11-18T15:20:22.753Z,12.50
2022-11-18T15:25:21.932Z,7.00
2022-11-18T15:30:19.183Z,4.90
2022-11-18T15:35:19.388Z,3.60
2022-11-18T15:40:17.548Z,3.00
2022-11-18T15:45:16.732Z,119.60
2022-11-18T15:50:15.167Z,80.70
2022-11-18T15:55:15.279Z,121.10
2022-11-18T16:00:14.480Z,54.80
2022-11-18T16:05:13.692Z,50.60
2022-11-18T16:10:11.871Z,70.50
2022-11-18T16:15:13.077Z,37.70
2022-11-18T16:20:11.303Z,57.40
2022-11-18T16:25:10.468Z,36.30
2022-11-18T16:30:10.849Z,49.00
2022-11-18T16:35:09.837Z,18.00
2022-11-18T16:40:08.155Z,109.10
2022-11-18T16:45:07.152Z,82.10
2022-11-18T16:50:08.347Z,75.10
2022-11-18T16:55:06.514Z,61.80
2022-11-18T17:00:05.001Z,52.00
2022-11-18T17:05:04.988Z,141.70
2022-11-18T17:10:02.143Z,135.50
2022-11-18T17:15:04.630Z,92.10
2022-11-18T17:20:01.885Z,90.50
2022-11-18T17:25:05.332Z,71.80
2022-11-18T17:30:03.133Z,181.80
2022-11-18T17:35:00.467Z,132.00
2022-11-18T17:40:00.495Z,279.20
2022-11-18T17:44:57.669Z,76.20
2022-11-18T17:49:57.200Z,47.30
2022-11-18T17:54:57.072Z,40.40
2022-11-18T17:59:55.548Z,40.60
2022-11-18T18:04:55.798Z,39.30
2022-11-18T18:09:54.854Z,62.30
2022-11-18T18:14:54.047Z,28.90
2022-11-18T18:19:52.251Z,18.50
2022-11-18T18:24:51.464Z,19.80
2022-11-18T18:29:51.667Z,13.80
2022-11-18T18:34:51.926Z,13.50
2022-11-18T18:39:49.272Z,10.50
2022-11-18T18:44:50.559Z,117.10
2022-11-18T18:49:49.683Z,89.90
2022-11-18T18:54:48.074Z,79.70
2022-11-18T18:59:47.335Z,55.40
2022-11-18T19:04:45.461Z,54.90
2022-11-18T19:09:45.882Z,44.10
2022-11-18T19:14:45.176Z,34.50
2022-11-18T19:19:43.490Z,107.50
2022-11-18T19:24:51.023Z,108.90
2022-11-18T19:29:43.191Z,72.10
2022-11-18T19:34:41.365Z,99.00
2022-11-18T19:39:41.710Z,96.90
2022-11-18T19:44:40.686Z,108.50
2022-11-18T19:49:38.931Z,132.50
2022-11-18T19:54:37.776Z,58.50
2022-11-18T19:59:38.105Z,68.10
2022-11-18T20:04:38.460Z,77.70
2022-11-18T20:09:36.557Z,88.70
2022-11-18T20:14:35.820Z,137.70
2022-11-18T20:19:34.055Z,93.00
2022-11-18T20:24:33.593Z,58.70
2022-11-18T20:29:32.699Z,51.80
2022-11-18T20:34:31.754Z,51.20
2022-11-18T20:39:32.279Z,37.50
2022-11-18T20:44:30.321Z,65.40
2022-11-18T20:49:40.946Z,92.10
2022-11-18T20:54:29.779Z,144.00
2022-11-18T20:59:30.843Z,177.90
2022-11-18T21:04:28.210Z,243.80
2022-11-18T21:09:26.262Z,101.00
2022-11-18T21:14:26.780Z,92.80
2022-11-18T21:19:24.728Z,83.00
2022-11-18T21:24:23.924Z,101.20
2022-11-18T21:29:23.288Z,119.00
2022-11-18T21:34:23.339Z,78.40
2022-11-18T21:39:23.632Z,67.40
2022-11-18T21:44:21.795Z,54.40
2022-11-18T21:49:20.175Z,92.90
2022-11-18T21:54:21.305Z,86.80
2022-11-18T21:59:19.658Z,74.30
2022-11-18T22:04:19.728Z,106.10
2022-11-18T22:09:17.164Z,89.00
2022-11-18T22:14:16.129Z,74.40
2022-11-18T22:19:16.343Z,68.90
2022-11-18T22:24:15.516Z,56.10
2022-11-18T22:29:13.799Z,79.60
2022-11-18T22:34:13.984Z,89.80
2022-11-18T22:39:13.177Z,75.10
2022-11-18T22:44:11.357Z,73.80
2022-11-18T22:49:11.668Z,110.90
2022-11-18T22:59:10.169Z,80.00
2022-11-18T23:04:08.387Z,66.60
2022-11-18T23:09:08.573Z,50.00
2022-11-18T23:14:06.786Z,49.10
2022-11-18T23:19:06.009Z,47.50
2022-11-18T23:24:07.197Z,66.50
2022-11-18T23:29:04.406Z,87.70
2022-11-18T23:34:03.642Z,100.90
2022-11-18T23:39:03.835Z,115.10
2022-11-18T23:44:02.049Z,43.50
2022-11-18T23:49:02.235Z,38.60
2022-11-18T23:54:00.408Z,69.80
2022-11-18T23:59:00.673Z,180.30
